Time;durP1;ratioP1;P1;durP2;ratioP2;P2;SDS_P1;SDS_P2;PMS_P1;PMS_P2;Temp;Humidity;BMP_temperature;BMP_pressure;BME280_temperature;BME280_humidity;BME280_pressure;Samples;Min_cycle;Max_cycle;Signal;HPM_P1;HPM_P2
2023/05/25 00:00:49;;;;;;;19.40;16.35;;;;;;;14.91;72.97;100655.72;5107783;28;20222;-62
2023/05/25 00:03:30;;;;;;;19.65;16.55;;;;;;;14.85;72.53;100655.00;5108883;28;20191;-62
2023/05/25 00:06:00;;;;;;;20.60;16.00;;;;;;;14.83;73.01;100654.16;5108857;28;20639;-63
2023/05/25 00:08:29;;;;;;;22.60;16.27;;;;;;;14.77;72.89;100643.91;5105325;28;20605;-62
2023/05/25 00:10:57;;;;;;;22.30;16.87;;;;;;;14.75;73.49;100654.28;5107851;28;20208;-65
2023/05/25 00:13:25;;;;;;;22.10;18.10;;;;;;;14.68;73.52;100652.69;5111191;28;20199;-64
2023/05/25 00:15:53;;;;;;;23.00;17.05;;;;;;;14.61;73.36;100656.28;5111042;28;20215;-63
2023/05/25 00:18:21;;;;;;;23.27;17.27;;;;;;;14.57;73.42;100649.44;5112148;27;20861;-63
2023/05/25 00:20:52;;;;;;;23.35;17.15;;;;;;;14.54;73.14;100641.72;5114592;28;20543;-62
2023/05/25 00:23:21;;;;;;;25.33;18.80;;;;;;;14.50;73.71;100653.88;5114396;28;20200;-63
2023/05/25 00:25:48;;;;;;;23.17;17.77;;;;;;;14.49;74.03;100658.22;5114043;27;20204;-62
2023/05/25 00:28:16;;;;;;;21.40;17.35;;;;;;;14.49;74.18;100658.22;5097547;28;20213;-63
2023/05/25 00:30:44;;;;;;;25.98;17.95;;;;;;;14.50;74.06;100649.56;5112985;28;20622;-62
2023/05/25 00:33:12;;;;;;;25.05;17.00;;;;;;;14.49;73.85;100658.22;5112971;27;20235;-62
2023/05/25 00:35:41;;;;;;;26.67;18.13;;;;;;;14.49;74.44;100659.94;5113769;28;20196;-62
2023/05/25 00:38:14;;;;;;;25.53;17.57;;;;;;;14.49;73.89;100659.94;5109467;28;20230;-62
2023/05/25 00:40:42;;;;;;;27.10;19.83;;;;;;;14.46;74.40;100653.06;5110988;28;20200;-62
2023/05/25 00:43:11;;;;;;;26.10;18.45;;;;;;;14.49;74.06;100650.44;5112917;27;20207;-62
2023/05/25 00:45:40;;;;;;;25.00;18.33;;;;;;;14.50;74.11;100654.75;5107996;28;20212;-63
2023/05/25 00:48:09;;;;;;;23.92;18.45;;;;;;;14.57;74.27;100657.22;5110885;28;20659;-63
2023/05/25 00:50:39;;;;;;;28.33;18.83;;;;;;;14.56;74.25;100647.75;5108732;28;20209;-63
2023/05/25 00:53:08;;;;;;;27.93;18.87;;;;;;;14.57;73.99;100659.81;5111678;28;20192;-64
2023/05/25 00:55:41;;;;;;;31.52;20.10;;;;;;;14.55;74.20;100664.19;5111189;28;20204;-63
2023/05/25 00:58:11;;;;;;;31.60;20.63;;;;;;;14.48;74.42;100666.84;5112687;28;20207;-62
2023/05/25 01:00:42;;;;;;;28.83;19.58;;;;;;;14.46;74.71;100668.59;5111517;27;20192;-64
2023/05/25 01:03:16;;;;;;;28.17;19.80;;;;;;;14.44;74.54;100660.03;5108009;28;20230;-63
2023/05/25 01:05:47;;;;;;;32.03;20.03;;;;;;;14.43;75.12;100660.91;5111131;27;20199;-62
2023/05/25 01:08:17;;;;;;;27.90;19.50;;;;;;;14.42;74.94;100671.28;5110193;27;20325;-62
2023/05/25 01:10:49;;;;;;;27.37;19.40;;;;;;;14.44;75.56;100677.31;5109966;27;20562;-63
2023/05/25 01:13:18;;;;;;;30.45;22.15;;;;;;;14.46;75.14;100673.78;5105763;28;20204;-61
2023/05/25 01:15:47;;;;;;;31.65;20.65;;;;;;;14.45;75.57;100677.28;5112270;28;20210;-62
2023/05/25 01:18:16;;;;;;;30.37;20.70;;;;;;;14.52;75.33;100682.41;5112873;27;20654;-63
2023/05/25 01:20:55;;;;;;;36.28;22.13;;;;;;;14.55;75.07;100687.53;5113199;28;20231;-63
2023/05/25 01:23:30;;;;;;;38.77;23.63;;;;;;;14.54;75.29;100685.81;5108583;27;20200;-63
2023/05/25 01:26:01;;;;;;;35.63;23.93;;;;;;;14.45;75.20;100677.28;5112116;28;20203;-62
2023/05/25 01:28:35;;;;;;;38.87;23.83;;;;;;;14.35;76.22;100686.09;5111394;28;20211;-63
2023/05/25 01:31:03;;;;;;;40.33;23.93;;;;;;;14.29;76.59;100682.78;5112351;28;20595;-61
2023/05/25 01:33:32;;;;;;;37.72;24.23;;;;;;;14.30;76.35;100674.94;5113091;27;20845;-61
2023/05/25 01:36:02;;;;;;;38.47;22.38;;;;;;;14.33;76.64;100677.50;5112620;28;20204;-62
2023/05/25 01:38:30;;;;;;;43.83;26.73;;;;;;;14.32;76.57;100669.72;5109835;27;20200;-63
2023/05/25 01:40:58;;;;;;;37.17;24.08;;;;;;;14.25;76.23;100677.63;5110756;28;20550;-62
2023/05/25 01:43:26;;;;;;;39.80;24.33;;;;;;;14.25;76.98;100671.59;5105556;28;20199;-62
2023/05/25 01:46:02;;;;;;;39.30;25.43;;;;;;;14.26;77.31;100673.31;5111278;27;20572;-62
2023/05/25 01:48:40;;;;;;;43.40;26.23;;;;;;;14.32;77.10;100680.09;5112724;28;20617;-62
2023/05/25 01:51:19;;;;;;;38.87;25.03;;;;;;;14.33;76.90;100681.84;5108737;28;20616;-61
2023/05/25 01:53:53;;;;;;;42.93;26.07;;;;;;;14.21;76.65;100675.97;5106535;27;20208;-62
2023/05/25 01:56:23;;;;;;;46.50;27.98;;;;;;;14.21;77.37;100672.50;5111320;28;20204;-62
2023/05/25 01:58:51;;;;;;;43.47;25.03;;;;;;;14.18;77.38;100672.56;5106273;28;20220;-62
2023/05/25 02:01:20;;;;;;;37.40;23.17;;;;;;;14.22;77.88;100675.09;5109633;27;20200;-62
2023/05/25 02:03:49;;;;;;;44.15;24.60;;;;;;;14.26;77.64;100674.16;5109271;28;20208;-62
2023/05/25 02:06:18;;;;;;;37.42;23.35;;;;;;;14.32;77.29;100675.75;5110363;27;20224;-62
2023/05/25 02:08:46;;;;;;;39.73;24.23;;;;;;;14.31;76.59;100662.84;5110539;28;20397;-62
2023/05/25 02:11:14;;;;;;;37.50;23.80;;;;;;;14.27;77.08;100670.66;5106458;28;20207;-62
2023/05/25 02:13:42;;;;;;;36.17;23.77;;;;;;;14.21;76.92;100670.78;5108932;28;20215;-64
2023/05/25 02:16:10;;;;;;;36.30;23.70;;;;;;;14.16;77.28;100664.81;5109012;27;20775;-63
2023/05/25 02:18:38;;;;;;;40.25;24.17;;;;;;;14.11;77.93;100658.00;5106971;28;20211;-65
2023/05/25 02:21:06;;;;;;;37.83;24.50;;;;;;;14.17;77.74;100671.69;5110295;28;20204;-63
2023/05/25 02:23:36;;;;;;;35.70;23.40;;;;;;;14.13;77.96;100670.03;5112333;28;20207;-63
2023/05/25 02:26:04;;;;;;;38.20;25.27;;;;;;;14.15;78.01;100677.81;5112793;27;20211;-61
2023/05/25 02:28:31;;;;;;;34.53;23.13;;;;;;;14.16;77.99;100674.31;5111150;28;20569;-62
2023/05/25 02:31:00;;;;;;;36.23;24.80;;;;;;;14.10;77.90;100677.00;5111343;28;20642;-61
2023/05/25 02:33:28;;;;;;;32.10;22.40;;;;;;;14.15;78.05;100683.00;5110133;28;20754;-62
2023/05/25 02:35:55;;;;;;;34.63;22.70;;;;;;;14.19;78.17;100680.31;5110665;28;20204;-62
2023/05/25 02:38:23;;;;;;;33.87;24.03;;;;;;;14.22;77.90;100682.84;5110354;28;20200;-62
2023/05/25 02:40:52;;;;;;;32.53;23.07;;;;;;;14.23;77.21;100688.91;5108851;27;20574;-62
2023/05/25 02:43:20;;;;;;;31.67;22.27;;;;;;;14.21;77.69;100682.88;5116743;27;20207;-67
2023/05/25 02:45:48;;;;;;;33.90;23.98;;;;;;;14.21;77.45;100688.94;5110196;28;20200;-61
2023/05/25 02:48:16;;;;;;;35.22;23.50;;;;;;;14.14;77.60;100689.03;5111714;28;20218;-60
2023/05/25 02:50:44;;;;;;;30.90;22.73;;;;;;;14.12;77.79;100685.63;5110654;28;20196;-64
2023/05/25 02:53:12;;;;;;;32.33;22.47;;;;;;;14.17;77.25;100686.38;5109855;28;20292;-63
2023/05/25 02:55:42;;;;;;;31.58;22.52;;;;;;;14.15;77.80;100688.16;5109186;28;20234;-63
2023/05/25 02:58:11;;;;;;;34.80;22.37;;;;;;;14.14;77.12;100676.94;5110806;28;20204;-61
2023/05/25 03:00:41;;;;;;;30.90;22.83;;;;;;;14.15;78.02;100677.81;5110675;28;20249;-65
2023/05/25 03:03:09;;;;;;;31.30;23.48;;;;;;;14.19;77.86;100684.66;5107080;28;20257;-62
2023/05/25 03:05:37;;;;;;;30.98;22.88;;;;;;;14.22;77.25;100682.84;5110735;28;20253;-63
2023/05/25 03:08:05;;;;;;;30.23;21.77;;;;;;;14.22;77.31;100685.44;5106591;28;20250;-62
2023/05/25 03:10:33;;;;;;;33.70;23.40;;;;;;;14.23;77.32;100678.53;5106740;28;20196;-63
2023/05/25 03:13:01;;;;;;;32.00;22.77;;;;;;;14.24;77.10;100683.66;5107854;28;20216;-63
2023/05/25 03:15:31;;;;;;;33.30;21.73;;;;;;;14.22;77.10;100689.78;5108730;28;20559;-62
2023/05/25 03:18:00;;;;;;;33.43;23.67;;;;;;;14.23;77.23;100699.25;5109646;28;20595;-63
2023/05/25 03:20:28;;;;;;;31.97;22.00;;;;;;;14.19;76.93;100698.47;5108810;28;20742;-62
2023/05/25 03:22:56;;;;;;;31.63;21.85;;;;;;;14.20;77.44;100699.31;5109742;28;20280;-61
2023/05/25 03:25:24;;;;;;;32.33;23.13;;;;;;;14.15;77.16;100706.31;5107217;28;20594;-62
2023/05/25 03:27:53;;;;;;;33.92;23.83;;;;;;;14.16;77.68;100702.84;5107945;28;20226;-62
2023/05/25 03:30:22;;;;;;;31.07;23.00;;;;;;;14.20;77.88;100707.09;5106382;28;20235;-62
2023/05/25 03:32:51;;;;;;;31.52;22.45;;;;;;;14.22;77.29;100710.53;5108446;28;20240;-62
2023/05/25 03:35:19;;;;;;;33.80;23.67;;;;;;;14.22;77.14;100726.06;5107349;28;20231;-63
2023/05/25 03:37:47;;;;;;;36.20;22.45;;;;;;;14.19;77.16;100732.16;5108978;28;20204;-61
2023/05/25 03:40:15;;;;;;;32.85;23.55;;;;;;;14.22;77.80;100726.06;5105693;28;20909;-61
2023/05/25 03:42:43;;;;;;;32.95;23.23;;;;;;;14.25;77.16;100726.88;5107963;28;20200;-62
2023/05/25 03:45:11;;;;;;;32.70;22.87;;;;;;;14.28;77.12;100731.13;5108908;28;20654;-62
2023/05/25 03:47:39;;;;;;;29.58;22.35;;;;;;;14.26;77.14;100726.00;5109042;28;20257;-62
2023/05/25 03:50:10;;;;;;;33.22;23.10;;;;;;;14.22;77.37;100711.38;5112751;28;20220;-60
2023/05/25 03:52:38;;;;;;;32.83;23.77;;;;;;;14.24;77.28;100708.75;5113462;28;20535;-61
2023/05/25 03:55:06;;;;;;;34.55;23.52;;;;;;;14.28;77.36;100710.41;5111703;28;20211;-61
2023/05/25 03:57:34;;;;;;;33.07;21.27;;;;;;;14.35;77.29;100711.16;5112651;28;20220;-63
2023/05/25 04:00:03;;;;;;;28.43;20.00;;;;;;;14.41;77.25;100721.44;5112753;28;20218;-63
2023/05/25 04:02:31;;;;;;;30.47;21.43;;;;;;;14.44;76.51;100717.06;5110989;28;20192;-61
2023/05/25 04:04:59;;;;;;;28.77;20.50;;;;;;;14.44;76.71;100716.22;5114395;28;20212;-61
2023/05/25 04:07:29;;;;;;;30.63;21.03;;;;;;;14.46;77.12;100730.84;5113002;28;20669;-62
2023/05/25 04:09:58;;;;;;;25.73;19.27;;;;;;;14.50;76.07;100727.34;5106704;27;20196;-63
2023/05/25 04:12:27;;;;;;;29.03;20.33;;;;;;;14.52;76.20;100732.53;5108951;28;20223;-61
2023/05/25 04:14:55;;;;;;;31.83;20.75;;;;;;;14.57;75.73;100735.03;5107946;28;20544;-62
2023/05/25 04:17:24;;;;;;;31.30;22.67;;;;;;;14.57;75.81;100737.63;5110885;28;20288;-63
2023/05/25 04:19:52;;;;;;;28.17;22.13;;;;;;;14.57;75.66;100737.63;5112457;28;20200;-63
2023/05/25 04:22:20;;;;;;;31.25;22.70;;;;;;;14.56;75.58;100736.78;5113835;27;20678;-62
2023/05/25 04:24:49;;;;;;;33.03;21.98;;;;;;;14.55;75.81;100735.06;5112851;27;20654;-62
2023/05/25 04:27:19;;;;;;;28.93;21.47;;;;;;;14.57;75.98;100732.44;5109702;28;20731;-63
2023/05/25 04:29:48;;;;;;;31.73;21.83;;;;;;;14.61;75.95;100739.28;5113279;28;20235;-62
2023/05/25 04:32:17;;;;;;;27.37;21.30;;;;;;;14.65;75.62;100740.94;5112203;27;20789;-62
2023/05/25 04:34:47;;;;;;;29.00;21.57;;;;;;;14.67;74.88;100728.81;5112575;28;20199;-63
2023/05/25 04:37:16;;;;;;;29.90;23.67;;;;;;;14.61;75.21;100734.09;5112428;28;20292;-63
2023/05/25 04:39:43;;;;;;;30.13;22.42;;;;;;;14.55;75.13;100734.22;5113304;28;20558;-63
2023/05/25 04:42:13;;;;;;;27.05;21.23;;;;;;;14.53;75.58;100738.56;5115019;27;20713;-62
2023/05/25 04:44:41;;;;;;;30.53;21.50;;;;;;;14.56;75.58;100730.75;5108633;28;20215;-65
2023/05/25 04:47:09;;;;;;;30.52;22.13;;;;;;;14.57;75.75;100735.88;5107576;28;20200;-64
2023/05/25 04:49:37;;;;;;;27.27;20.85;;;;;;;14.57;75.58;100735.03;5113664;28;20208;-63
2023/05/25 04:52:06;;;;;;;31.10;21.53;;;;;;;14.62;76.07;100739.28;5111619;28;20274;-62
2023/05/25 04:54:34;;;;;;;31.00;23.77;;;;;;;14.69;75.17;100746.06;5113843;28;20647;-63
2023/05/25 04:57:03;;;;;;;30.38;20.63;;;;;;;14.66;75.27;100735.75;5113799;28;20207;-63
2023/05/25 04:59:32;;;;;;;27.00;21.33;;;;;;;14.68;74.83;100743.47;5107721;27;20730;-64
2023/05/25 05:02:00;;;;;;;28.48;21.30;;;;;;;14.63;75.22;100738.38;5106143;27;20288;-63
2023/05/25 05:04:29;;;;;;;29.67;21.27;;;;;;;14.65;75.21;100746.97;5110785;28;20628;-62
2023/05/25 05:06:58;;;;;;;28.83;21.45;;;;;;;14.64;74.92;100749.59;5112229;28;20289;-63
2023/05/25 05:09:26;;;;;;;31.10;21.73;;;;;;;14.56;75.04;100746.28;5107840;27;20256;-62
2023/05/25 05:11:54;;;;;;;28.58;22.13;;;;;;;14.53;75.43;100744.59;5111239;28;20210;-62
2023/05/25 05:14:22;;;;;;;28.25;22.02;;;;;;;14.54;75.41;100748.03;5095941;27;20566;-67
2023/05/25 05:16:51;;;;;;;29.52;21.27;;;;;;;14.52;75.61;100742.91;5102524;28;20213;-61
2023/05/25 05:19:19;;;;;;;30.50;21.95;;;;;;;14.53;75.05;100748.94;5111316;27;20704;-61
2023/05/25 05:21:47;;;;;;;30.58;21.67;;;;;;;14.46;75.76;100755.91;5110029;28;20219;-62
2023/05/25 05:24:15;;;;;;;29.15;20.40;;;;;;;14.54;76.19;100754.09;5110050;28;20207;-61
2023/05/25 05:26:43;;;;;;;24.90;20.02;;;;;;;14.67;75.11;100762.53;5111189;28;20212;-63
2023/05/25 05:29:25;;;;;;;26.63;19.40;;;;;;;14.82;75.48;100764.84;5107737;28;20282;-62
2023/05/25 05:31:55;;;;;;;30.55;23.95;;;;;;;14.90;73.14;100762.97;5110372;28;20200;-62
2023/05/25 05:34:23;;;;;;;28.63;22.10;;;;;;;14.71;74.71;100759.84;5110338;28;20232;-63
2023/05/25 05:36:51;;;;;;;32.42;21.13;;;;;;;14.69;75.50;100759.03;5109810;28;20585;-61
2023/05/25 05:39:25;;;;;;;33.47;21.67;;;;;;;14.82;75.47;100770.03;5104288;28;20245;-61
2023/05/25 05:41:53;;;;;;;26.58;20.48;;;;;;;14.94;74.49;100775.00;5105588;28;20228;-62
2023/05/25 05:44:22;;;;;;;27.55;20.08;;;;;;;15.06;74.16;100778.28;5099250;27;20855;-62
2023/05/25 05:46:58;;;;;;;27.80;19.80;;;;;;;15.06;73.95;100773.06;5109437;28;20218;-68
2023/05/25 05:49:28;;;;;;;27.77;20.25;;;;;;;15.10;73.92;100772.16;5107434;28;20627;-64
2023/05/25 05:51:56;;;;;;;30.00;22.48;;;;;;;15.05;73.34;100772.22;5107385;28;20204;-62
2023/05/25 05:54:26;;;;;;;30.80;21.45;;;;;;;15.08;73.85;100781.69;5107633;28;20200;-64
2023/05/25 05:56:54;;;;;;;28.30;22.17;;;;;;;15.10;73.54;100772.16;5109737;28;20207;-62
2023/05/25 05:59:22;;;;;;;28.98;20.27;;;;;;;15.08;73.45;100782.56;5108412;28;20200;-62
2023/05/25 06:01:50;;;;;;;32.33;21.98;;;;;;;15.12;73.63;100784.22;5108493;28;20219;-62
2023/05/25 06:04:24;;;;;;;29.42;20.67;;;;;;;15.15;73.69;100789.34;5108123;27;20211;-63
2023/05/25 06:06:51;;;;;;;28.45;20.55;;;;;;;15.22;73.25;100792.69;5106794;28;20219;-62
2023/05/25 06:09:19;;;;;;;23.02;18.23;;;;;;;15.24;72.60;100788.31;5107907;28;20204;-62
2023/05/25 06:11:47;;;;;;;29.52;21.80;;;;;;;15.19;73.07;100796.19;5110136;28;20555;-64
2023/05/25 06:14:15;;;;;;;27.00;20.30;;;;;;;15.20;73.00;100803.09;5112002;28;20673;-62
2023/05/25 06:16:43;;;;;;;29.67;20.75;;;;;;;15.26;73.08;100796.09;5108806;28;20661;-62
2023/05/25 06:19:13;;;;;;;27.85;21.65;;;;;;;15.28;72.72;100795.19;5108421;28;20203;-65
2023/05/25 06:21:42;;;;;;;27.00;20.42;;;;;;;15.20;72.65;100804.84;5110412;28;20224;-65
2023/05/25 06:24:10;;;;;;;27.52;22.33;;;;;;;15.19;72.60;100816.09;5106814;28;20658;-63
2023/05/25 06:26:38;;;;;;;24.38;19.40;;;;;;;15.17;73.13;100823.94;5102162;28;20583;-62
2023/05/25 06:29:06;;;;;;;27.33;20.38;;;;;;;15.16;72.90;100817.00;5102365;28;20704;-61
2023/05/25 06:31:35;;;;;;;30.05;18.83;;;;;;;15.08;73.18;100820.63;5111449;28;20673;-64
2023/05/25 06:34:03;;;;;;;24.60;20.83;;;;;;;15.10;73.00;100822.34;5110407;28;20235;-63
2023/05/25 06:36:31;;;;;;;26.95;19.40;;;;;;;15.11;72.84;100816.25;5106666;28;20332;-66
2023/05/25 06:39:00;;;;;;;26.40;18.73;;;;;;;15.18;72.87;100823.03;5107443;28;20222;-63
2023/05/25 06:41:29;;;;;;;27.27;18.63;;;;;;;15.26;73.32;100828.09;5108316;28;20212;-64
2023/05/25 06:43:57;;;;;;;26.02;18.40;;;;;;;15.34;72.60;100821.00;5110276;28;20606;-62
2023/05/25 06:46:25;;;;;;;24.50;19.00;;;;;;;15.42;72.63;100819.13;5104572;28;20204;-64
2023/05/25 06:48:53;;;;;;;25.38;18.55;;;;;;;15.52;71.92;100818.97;5108978;28;20204;-63
2023/05/25 06:51:21;;;;;;;25.65;19.35;;;;;;;15.56;71.42;100820.59;5108991;28;20208;-62
2023/05/25 06:53:49;;;;;;;25.75;20.85;;;;;;;15.53;71.16;100823.25;5109117;28;20244;-66
2023/05/25 06:56:18;;;;;;;24.10;19.02;;;;;;;15.53;71.46;100823.25;5108820;28;20651;-63
2023/05/25 06:58:47;;;;;;;27.15;20.23;;;;;;;15.57;71.74;100824.91;5096661;28;20568;-62
2023/05/25 07:01:15;;;;;;;27.63;20.15;;;;;;;15.60;71.24;100820.50;5083908;28;20206;-62
2023/05/25 07:03:43;;;;;;;28.98;20.88;;;;;;;15.65;70.90;100823.94;5101614;28;20298;-63
2023/05/25 07:06:11;;;;;;;25.40;20.52;;;;;;;15.73;70.94;100821.16;5104453;28;20211;-62
2023/05/25 07:08:39;;;;;;;27.02;20.67;;;;;;;15.73;70.92;100821.16;5106928;28;20211;-63
2023/05/25 07:11:11;;;;;;;25.30;19.58;;;;;;;15.74;70.64;100820.28;5107056;28;20200;-65
2023/05/25 07:13:40;;;;;;;25.75;19.60;;;;;;;15.75;70.76;100816.78;5101197;28;20643;-64
2023/05/25 07:16:08;;;;;;;28.23;20.08;;;;;;;15.70;70.66;100814.28;5092843;28;20208;-63
2023/05/25 07:18:39;;;;;;;26.17;19.63;;;;;;;15.69;70.71;100811.72;5107369;28;20207;-64
2023/05/25 07:21:08;;;;;;;24.17;19.77;;;;;;;15.63;71.01;100812.66;5104449;28;20196;-66
2023/05/25 07:23:36;;;;;;;26.05;19.83;;;;;;;15.61;70.88;100814.44;5096421;27;20215;-62
2023/05/25 07:26:04;;;;;;;28.70;20.38;;;;;;;15.64;70.62;100818.72;5105571;28;20227;-64
2023/05/25 07:28:33;;;;;;;26.33;20.80;;;;;;;15.53;71.54;100811.13;5109509;28;21829;-63
2023/05/25 07:31:02;;;;;;;28.75;22.60;;;;;;;15.41;71.80;100811.38;5108923;28;20584;-63
2023/05/25 07:33:30;;;;;;;27.80;20.85;;;;;;;15.48;72.18;100812.13;5109901;28;21289;-63
2023/05/25 07:35:58;;;;;;;27.83;20.45;;;;;;;15.63;71.68;100823.06;5112276;28;20205;-63
2023/05/25 07:38:26;;;;;;;27.90;20.55;;;;;;;15.79;71.22;100818.41;5108141;27;20249;-63
2023/05/25 07:40:54;;;;;;;27.33;21.48;;;;;;;15.85;69.56;100812.25;5115001;28;20729;-62
2023/05/25 07:43:22;;;;;;;27.65;20.02;;;;;;;15.89;70.57;100813.91;5110956;28;20215;-66
2023/05/25 07:45:50;;;;;;;26.60;19.52;;;;;;;16.06;70.32;100817.00;5108944;28;20208;-66
2023/05/25 07:48:19;;;;;;;27.80;19.92;;;;;;;16.15;69.66;100808.97;5104573;27;20295;-63
2023/05/25 07:50:47;;;;;;;24.95;18.88;;;;;;;16.28;68.97;100819.97;5112984;28;20222;-63
2023/05/25 07:53:15;;;;;;;23.88;19.17;;;;;;;16.43;68.52;100817.03;5108860;28;20204;-64
2023/05/25 07:55:43;;;;;;;25.42;18.63;;;;;;;16.56;67.66;100816.72;5105484;27;20597;-65
2023/05/25 07:58:11;;;;;;;26.08;20.02;;;;;;;16.59;67.25;100817.50;5105592;28;20211;-64
2023/05/25 08:00:40;;;;;;;24.52;20.05;;;;;;;16.55;67.28;100812.41;5109714;27;20642;-64
2023/05/25 08:03:07;;;;;;;24.85;20.25;;;;;;;16.58;67.25;100809.75;5104809;27;20215;-63
2023/05/25 08:05:39;;;;;;;22.85;20.35;;;;;;;16.58;66.78;100810.59;5108755;27;20278;-66
2023/05/25 08:08:07;;;;;;;24.17;19.63;;;;;;;16.64;67.53;100820.88;5108409;27;20217;-62
2023/05/25 08:10:35;;;;;;;22.60;18.83;;;;;;;16.78;67.04;100825.75;5114697;28;20654;-65
2023/05/25 08:13:03;;;;;;;20.20;17.80;;;;;;;16.90;67.06;100820.25;5110486;28;20200;-67
2023/05/25 08:15:31;;;;;;;23.05;18.83;;;;;;;16.96;65.59;100816.63;5112335;28;20254;-67
2023/05/25 08:17:59;;;;;;;23.98;18.38;;;;;;;17.09;65.97;100823.25;5111390;28;20200;-66
2023/05/25 08:20:27;;;;;;;22.40;18.63;;;;;;;17.21;65.80;100811.66;5105024;28;20208;-66
2023/05/25 08:22:58;;;;;;;22.83;18.05;;;;;;;17.34;64.99;100806.94;5113745;27;20587;-65
2023/05/25 08:25:26;;;;;;;21.60;18.50;;;;;;;17.53;64.20;100807.31;5108259;27;20296;-66
2023/05/25 08:27:53;;;;;;;20.67;18.20;;;;;;;17.68;63.65;100817.31;5103707;28;20204;-65
2023/05/25 08:30:21;;;;;;;20.92;18.50;;;;;;;17.84;63.59;100818.59;5105470;27;20211;-64
2023/05/25 08:32:49;;;;;;;20.65;18.35;;;;;;;18.06;62.87;100816.19;5105430;27;20607;-67
2023/05/25 08:35:18;;;;;;;22.30;18.20;;;;;;;18.19;62.23;100819.31;5109595;28;20260;-68
2023/05/25 08:37:46;;;;;;;20.60;18.35;;;;;;;18.25;61.93;100808.66;5111288;27;20206;-65
2023/05/25 08:40:16;;;;;;;23.42;18.73;;;;;;;18.17;62.35;100808.06;5109653;27;20200;-66
2023/05/25 08:42:45;;;;;;;20.25;18.15;;;;;;;18.48;61.35;100813.16;5105445;27;20710;-66
2023/05/25 08:45:13;;;;;;;21.48;19.17;;;;;;;18.74;59.27;100812.38;5106807;27;20211;-66
2023/05/25 08:48:01;;;;;;;19.95;17.15;;;;;;;18.74;60.25;100808.88;5107406;27;20243;-65
2023/05/25 08:50:30;;;;;;;23.63;17.90;;;;;;;19.07;59.55;100814.72;5110871;28;20238;-66
2023/05/25 08:53:02;;;;;;;25.17;19.27;;;;;;;19.33;58.86;100810.34;5112016;28;20202;-63
2023/05/25 08:55:35;;;;;;;22.10;18.50;;;;;;;19.57;57.67;100809.47;5113580;28;20210;-68
2023/05/25 08:58:12;;;;;;;20.08;17.90;;;;;;;19.78;56.48;100813.94;5111164;28;20261;-65
2023/05/25 09:00:44;;;;;;;20.95;17.80;;;;;;;19.78;56.39;100808.72;5108578;28;20230;-65
2023/05/25 09:03:16;;;;;;;19.63;17.25;;;;;;;19.98;56.41;100807.94;5097297;28;20215;-65
2023/05/25 09:05:46;;;;;;;18.70;16.52;;;;;;;20.27;55.58;100806.81;5108313;28;20339;-64
2023/05/25 09:08:15;;;;;;;19.35;16.80;;;;;;;20.49;55.06;100809.47;5110307;27;20204;-66
2023/05/25 09:10:44;;;;;;;18.75;16.85;;;;;;;20.67;54.45;100813.09;5105211;28;20207;-65
2023/05/25 09:13:13;;;;;;;19.65;16.35;;;;;;;20.83;54.06;100815.06;5103136;27;20207;-67
2023/05/25 09:15:50;;;;;;;18.45;16.35;;;;;;;20.96;53.74;100806.63;5112948;28;20290;-67
2023/05/25 09:18:19;;;;;;;17.45;15.65;;;;;;;21.09;53.56;100811.34;5103135;28;20196;-65
2023/05/25 09:20:47;;;;;;;20.63;16.83;;;;;;;21.19;52.68;100810.88;5093954;28;20204;-64
2023/05/25 09:23:17;;;;;;;17.95;16.15;;;;;;;21.44;52.54;100817.72;5111631;27;20239;-64
2023/05/25 09:25:49;;;;;;;18.52;16.38;;;;;;;21.73;50.32;100813.78;5110762;28;20214;-67
2023/05/25 09:28:20;;;;;;;17.63;15.73;;;;;;;21.97;50.14;100809.16;5111468;27;20200;-66
2023/05/25 09:30:50;;;;;;;18.05;16.15;;;;;;;21.81;50.31;100810.81;5111338;28;20587;-66
2023/05/25 09:33:19;;;;;;;20.27;17.05;;;;;;;21.41;51.04;100823.94;5110032;27;20238;-65
2023/05/25 09:35:48;;;;;;;18.73;16.63;;;;;;;21.19;51.82;100816.13;5100763;27;20246;-65
2023/05/25 09:38:16;;;;;;;19.80;16.40;;;;;;;21.29;51.66;100818.38;5104301;28;20286;-64
2023/05/25 09:40:46;;;;;;;21.23;17.20;;;;;;;21.48;51.07;100816.66;5107510;28;20257;-66
2023/05/25 09:43:16;;;;;;;18.73;16.38;;;;;;;21.56;50.71;100819.78;5104337;27;20267;-64
2023/05/25 09:45:59;;;;;;;19.38;16.13;;;;;;;21.82;50.45;100815.13;5097824;28;20208;-63
2023/05/25 09:48:28;;;;;;;19.33;16.17;;;;;;;22.24;50.24;100814.06;5109819;27;20224;-66
2023/05/25 09:50:56;;;;;;;18.73;16.15;;;;;;;22.68;49.59;100830.28;5109865;28;20200;-65
2023/05/25 09:53:26;;;;;;;19.80;17.20;;;;;;;22.83;47.80;100826.09;5099547;27;20210;-65
2023/05/25 09:55:56;;;;;;;18.40;16.42;;;;;;;22.55;48.33;100818.69;5104088;27;20627;-65
2023/05/25 09:58:24;;;;;;;17.83;16.02;;;;;;;22.42;48.96;100823.69;5101072;28;20532;-65
2023/05/25 10:00:54;;;;;;;18.40;16.35;;;;;;;22.38;48.90;100817.72;5109059;28;20583;-63
2023/05/25 10:03:22;;;;;;;20.05;15.90;;;;;;;22.20;49.08;100834.38;5105751;28;20686;-65
2023/05/25 10:05:51;;;;;;;19.13;17.13;;;;;;;21.73;50.42;100828.69;5104077;27;20250;-66
2023/05/25 10:08:22;;;;;;;18.85;16.85;;;;;;;21.41;51.38;100833.59;5100513;28;20624;-65
2023/05/25 10:10:51;;;;;;;20.90;16.23;;;;;;;21.21;52.14;100826.56;5109452;28;20196;-64
2023/05/25 10:13:22;;;;;;;19.08;17.08;;;;;;;21.12;52.53;100838.28;5110255;28;20196;-64
2023/05/25 10:15:54;;;;;;;17.85;15.95;;;;;;;21.02;52.60;100836.97;5109938;28;20519;-66
2023/05/25 10:18:26;;;;;;;18.95;15.75;;;;;;;20.84;53.49;100832.47;5110605;28;20374;-67
2023/05/25 10:21:00;;;;;;;18.50;16.45;;;;;;;20.63;54.06;100837.72;5099736;27;20231;-64
2023/05/25 10:23:35;;;;;;;20.35;16.10;;;;;;;20.45;55.01;100827.94;5104597;28;20220;-63
2023/05/25 10:26:06;;;;;;;23.88;16.58;;;;;;;20.28;54.96;100832.06;5102297;28;20742;-64
2023/05/25 10:28:39;;;;;;;19.02;17.00;;;;;;;19.82;56.23;100830.38;5100056;28;20208;-65
2023/05/25 10:31:09;;;;;;;20.48;16.77;;;;;;;19.59;57.67;100844.25;5099727;27;20239;-65
2023/05/25 10:33:37;;;;;;;22.20;16.80;;;;;;;19.60;57.77;100834.66;5096549;28;20787;-66
2023/05/25 10:36:07;;;;;;;21.65;16.52;;;;;;;19.68;57.59;100841.34;5110312;27;20559;-64
2023/05/25 10:38:39;;;;;;;18.42;16.05;;;;;;;19.64;57.75;100831.06;5109533;28;20205;-67
2023/05/25 10:41:10;;;;;;;19.50;15.77;;;;;;;19.61;58.27;100831.97;5106558;28;20204;-64
2023/05/25 10:43:40;;;;;;;19.10;14.35;;;;;;;19.62;58.54;100823.25;5110217;28;20223;-64
2023/05/25 10:46:08;;;;;;;16.10;13.60;;;;;;;19.63;57.98;100824.97;5111666;28;20278;-64
2023/05/25 10:48:37;;;;;;;16.13;14.43;;;;;;;19.66;57.21;100829.22;5110257;28;21104;-65
2023/05/25 10:51:06;;;;;;;16.45;14.75;;;;;;;19.58;57.69;100826.00;5107763;28;20200;-58
2023/05/25 10:53:38;;;;;;;17.13;14.63;;;;;;;19.58;57.83;100824.22;5104538;28;20210;-57
2023/05/25 10:56:09;;;;;;;16.70;14.50;;;;;;;19.63;58.07;100824.13;5110657;28;20316;-65
2023/05/25 10:58:43;;;;;;;16.95;15.07;;;;;;;19.64;57.84;100816.22;5109743;28;20226;-61
2023/05/25 11:01:13;;;;;;;16.17;14.48;;;;;;;19.68;58.06;100823.03;5111376;28;20200;-65
2023/05/25 11:03:57;;;;;;;15.65;14.15;;;;;;;19.69;58.11;100824.72;5111858;28;20203;-65
2023/05/25 11:06:58;;;;;;;18.50;14.23;;;;;;;19.71;57.79;100820.31;5108507;28;20596;-62
2023/05/25 11:09:30;;;;;;;20.98;14.40;;;;;;;19.82;57.97;100816.44;5095593;28;20577;-66
2023/05/25 11:12:02;;;;;;;14.48;13.05;;;;;;;19.96;57.97;100814.16;5111758;28;20563;-62
2023/05/25 11:14:37;;;;;;;16.55;12.65;;;;;;;20.26;57.51;100810.34;5110001;28;20287;-66
2023/05/25 11:17:06;;;;;;;15.02;13.35;;;;;;;20.46;56.50;100811.31;5102345;28;20620;-68
2023/05/25 11:19:46;;;;;;;14.95;13.38;;;;;;;20.73;56.10;100814.63;5105421;28;20674;-67